createdAt,value
2023-03-03T00:00:10.196Z,33.40
2023-03-03T00:03:03.787Z,35.87
2023-03-03T00:05:50.806Z,33.90
2023-03-03T00:08:37.174Z,36.63
2023-03-03T00:11:23.493Z,35.23
2023-03-03T00:14:23.186Z,37.33
2023-03-03T00:17:21.856Z,40.20
2023-03-03T00:20:30.002Z,32.87
2023-03-03T00:23:35.310Z,37.87
2023-03-03T00:26:38.998Z,35.70
2023-03-03T00:29:37.423Z,34.80
2023-03-03T00:32:27.480Z,37.90
2023-03-03T00:35:24.566Z,33.67
2023-03-03T00:38:17.103Z,36.83
2023-03-03T00:41:11.381Z,39.27
2023-03-03T00:43:58.499Z,40.17
2023-03-03T00:46:44.907Z,42.50
2023-03-03T00:49:31.108Z,36.87
2023-03-03T00:52:19.059Z,37.87
2023-03-03T00:55:07.511Z,34.07
2023-03-03T00:57:54.086Z,42.23
2023-03-03T01:00:45.094Z,35.83
2023-03-03T01:03:34.431Z,44.03
2023-03-03T01:06:20.716Z,33.10
2023-03-03T01:09:06.908Z,39.60
2023-03-03T01:11:55.257Z,41.63
2023-03-03T01:14:42.437Z,44.10
2023-03-03T01:17:29.121Z,43.60
2023-03-03T01:20:16.798Z,36.80
2023-03-03T01:23:03.089Z,38.67
2023-03-03T01:25:49.634Z,35.83
2023-03-03T01:28:36.241Z,38.27
2023-03-03T01:31:22.748Z,40.00
2023-03-03T01:34:09.228Z,37.97
2023-03-03T01:36:55.412Z,40.20
2023-03-03T01:39:42.170Z,39.37
2023-03-03T01:42:30.048Z,40.03
2023-03-03T01:45:48.739Z,40.93
2023-03-03T01:48:42.946Z,39.93
2023-03-03T01:51:42.137Z,33.07
2023-03-03T01:54:39.367Z,36.23
2023-03-03T01:57:31.992Z,37.13
2023-03-03T02:00:19.739Z,37.87
2023-03-03T02:03:06.263Z,35.50
2023-03-03T02:05:55.686Z,36.10
2023-03-03T02:09:04.754Z,35.87
2023-03-03T02:11:54.711Z,37.73
2023-03-03T02:14:40.931Z,35.77
2023-03-03T02:17:27.509Z,38.83
2023-03-03T02:20:34.463Z,39.73
2023-03-03T02:23:38.405Z,34.90
2023-03-03T02:26:27.445Z,36.73
2023-03-03T02:29:19.172Z,37.07
2023-03-03T02:32:06.874Z,41.00
2023-03-03T02:34:53.534Z,38.30
2023-03-03T02:37:40.716Z,38.90
2023-03-03T02:40:31.696Z,35.70
2023-03-03T02:43:22.583Z,37.10
2023-03-03T02:46:08.914Z,32.93
2023-03-03T02:48:55.397Z,40.33
2023-03-03T02:51:42.507Z,39.40
2023-03-03T02:54:30.926Z,38.43
2023-03-03T02:57:18.264Z,39.13
2023-03-03T03:00:05.883Z,39.37
2023-03-03T03:02:52.388Z,36.10
2023-03-03T03:05:39.632Z,43.20
2023-03-03T03:08:26.376Z,32.30
2023-03-03T03:11:12.910Z,35.70
2023-03-03T03:13:59.587Z,38.63
2023-03-03T03:16:46.145Z,38.87
2023-03-03T03:19:32.579Z,37.50
2023-03-03T03:22:21.632Z,38.47
2023-03-03T03:25:08.936Z,32.27
2023-03-03T03:27:55.768Z,34.90
2023-03-03T03:30:44.098Z,34.30
2023-03-03T03:33:31.071Z,35.40
2023-03-03T03:36:17.798Z,37.33
2023-03-03T03:39:06.665Z,37.90
2023-03-03T03:41:55.819Z,50.10
2023-03-03T03:44:42.616Z,41.43
2023-03-03T03:47:29.034Z,40.40
2023-03-03T03:50:17.388Z,39.17
2023-03-03T03:53:05.929Z,42.40
2023-03-03T03:55:52.684Z,42.37
2023-03-03T03:58:41.558Z,35.27
2023-03-03T04:01:29.958Z,34.87
2023-03-03T04:04:17.445Z,38.30
2023-03-03T04:07:04.050Z,38.33
2023-03-03T04:09:51.006Z,39.77
2023-03-03T04:12:40.782Z,39.57
2023-03-03T04:15:31.546Z,47.73
2023-03-03T04:18:19.284Z,29.77
2023-03-03T04:21:06.605Z,35.93
2023-03-03T04:23:53.551Z,38.60
2023-03-03T04:26:40.381Z,37.07
2023-03-03T04:29:28.065Z,34.87
2023-03-03T04:32:14.913Z,36.70
2023-03-03T04:35:08.285Z,37.17
2023-03-03T04:37:57.898Z,37.80
2023-03-03T04:40:45.139Z,36.77
2023-03-03T04:43:32.594Z,36.53
2023-03-03T04:46:19.886Z,34.57
2023-03-03T04:49:09.788Z,33.47
2023-03-03T04:51:58.186Z,29.07
2023-03-03T04:54:44.562Z,31.70
2023-03-03T04:57:33.984Z,31.87
2023-03-03T05:00:20.649Z,31.47
2023-03-03T05:03:07.681Z,26.60
2023-03-03T05:05:54.525Z,30.43
2023-03-03T05:08:43.086Z,38.83
2023-03-03T05:11:29.387Z,28.87
2023-03-03T05:14:15.999Z,29.57
2023-03-03T05:17:04.432Z,31.10
2023-03-03T05:19:51.086Z,34.03
2023-03-03T05:22:37.429Z,28.97
2023-03-03T05:25:24.214Z,29.20
2023-03-03T05:28:10.694Z,35.03
2023-03-03T05:30:57.197Z,29.70
2023-03-03T05:33:43.470Z,29.00
2023-03-03T05:36:29.694Z,31.33
2023-03-03T05:39:16.096Z,34.27
2023-03-03T05:42:02.902Z,34.97
2023-03-03T05:44:49.275Z,33.83
2023-03-03T05:47:35.420Z,27.87
2023-03-03T05:50:23.068Z,26.03
2023-03-03T05:53:09.173Z,28.67
2023-03-03T05:55:55.652Z,29.10
2023-03-03T05:58:42.004Z,29.73
2023-03-03T06:01:29.268Z,30.00
2023-03-03T06:04:15.768Z,31.03
2023-03-03T06:07:02.091Z,29.17
2023-03-03T06:09:48.301Z,32.90
2023-03-03T06:12:35.205Z,29.63
2023-03-03T06:15:23.192Z,29.43
2023-03-03T06:18:09.674Z,36.83
2023-03-03T06:20:56.074Z,31.33
2023-03-03T06:23:42.580Z,27.43
2023-03-03T06:26:28.924Z,29.20
2023-03-03T06:29:15.874Z,25.77
2023-03-03T06:32:02.459Z,32.00
2023-03-03T06:34:49.097Z,30.87
2023-03-03T06:37:35.883Z,29.00
2023-03-03T06:40:22.230Z,27.20
2023-03-03T06:43:09.594Z,34.80
2023-03-03T06:45:55.799Z,33.67
2023-03-03T06:48:42.086Z,26.40
2023-03-03T06:51:35.072Z,35.60
2023-03-03T06:54:30.342Z,32.07
2023-03-03T06:57:32.001Z,30.03
2023-03-03T07:00:23.951Z,29.57
2023-03-03T07:03:19.281Z,27.10
2023-03-03T07:06:24.653Z,31.20
2023-03-03T07:09:26.768Z,33.90
2023-03-03T07:12:22.973Z,29.83
2023-03-03T07:15:09.158Z,27.30
2023-03-03T07:17:59.871Z,33.57
2023-03-03T07:20:46.234Z,36.50
2023-03-03T07:23:42.692Z,27.63
2023-03-03T07:26:33.282Z,34.10
2023-03-03T07:29:28.330Z,31.10
2023-03-03T07:32:39.965Z,35.20
2023-03-03T07:35:43.769Z,22.77
2023-03-03T07:38:45.354Z,32.40
2023-03-03T07:41:34.748Z,33.17
2023-03-03T07:44:26.179Z,28.57
2023-03-03T07:47:30.068Z,35.87
2023-03-03T07:50:22.751Z,34.33
2023-03-03T07:53:26.403Z,36.27
2023-03-03T07:56:29.596Z,31.13
2023-03-03T07:59:24.571Z,32.50
2023-03-03T08:02:37.807Z,29.83
2023-03-03T08:05:36.235Z,38.63
2023-03-03T08:08:33.209Z,36.40
2023-03-03T08:11:19.465Z,31.10
2023-03-03T08:14:16.460Z,31.47
2023-03-03T08:17:14.765Z,30.70
2023-03-03T08:20:01.212Z,36.90
2023-03-03T08:22:47.384Z,32.47
2023-03-03T08:25:33.655Z,33.33
2023-03-03T08:28:21.610Z,28.27
2023-03-03T08:31:18.469Z,31.00
2023-03-03T08:34:11.592Z,30.73
2023-03-03T08:36:58.487Z,28.97
2023-03-03T08:39:44.717Z,29.30
2023-03-03T08:42:31.457Z,41.40
2023-03-03T08:45:17.779Z,38.20
2023-03-03T08:48:06.166Z,29.40
2023-03-03T08:50:52.896Z,33.17
2023-03-03T08:53:39.440Z,42.73
2023-03-03T08:56:26.052Z,33.03
2023-03-03T08:59:13.492Z,36.33
2023-03-03T09:01:59.930Z,23.60
2023-03-03T09:04:46.497Z,29.93
2023-03-03T09:07:32.877Z,34.23
2023-03-03T09:10:27.258Z,25.60
2023-03-03T09:13:21.337Z,28.87
2023-03-03T09:16:13.927Z,28.53
2023-03-03T09:19:16.124Z,25.17
2023-03-03T09:22:18.718Z,27.70
2023-03-03T09:25:21.929Z,20.33
2023-03-03T09:28:30.380Z,23.97
2023-03-03T09:31:28.173Z,22.17
2023-03-03T09:34:24.141Z,24.43
2023-03-03T09:37:37.366Z,21.10
2023-03-03T09:40:42.668Z,29.27
2023-03-03T09:43:43.416Z,26.17
2023-03-03T09:46:29.599Z,27.80
2023-03-03T09:49:41.149Z,27.23
2023-03-03T09:52:40.535Z,28.90
2023-03-03T09:55:37.288Z,22.00
2023-03-03T09:58:36.060Z,22.33
2023-03-03T10:01:28.645Z,18.30
2023-03-03T10:04:37.055Z,22.50
2023-03-03T10:07:35.450Z,19.93
2023-03-03T10:10:47.012Z,23.77
2023-03-03T10:13:36.314Z,18.30
2023-03-03T10:17:02.091Z,24.73
2023-03-03T10:20:49.072Z,17.97
2023-03-03T10:23:54.024Z,20.67
2023-03-03T10:27:14.513Z,22.07
2023-03-03T10:30:46.180Z,23.07
2023-03-03T10:34:10.277Z,24.63
2023-03-03T10:37:15.487Z,22.47
2023-03-03T10:40:05.785Z,19.03
2023-03-03T10:43:35.030Z,15.67
2023-03-03T10:46:57.786Z,21.20
2023-03-03T10:49:56.745Z,19.33
2023-03-03T10:52:55.299Z,22.33
2023-03-03T10:55:46.587Z,20.07
2023-03-03T10:58:56.238Z,19.07
2023-03-03T11:01:48.749Z,17.40
2023-03-03T11:04:41.483Z,26.63
2023-03-03T11:07:36.434Z,20.50
2023-03-03T11:10:44.719Z,20.20
2023-03-03T11:13:37.385Z,18.30
2023-03-03T11:16:48.754Z,19.17
2023-03-03T11:20:02.878Z,20.80
2023-03-03T11:22:54.491Z,18.93
2023-03-03T11:25:49.767Z,22.03
2023-03-03T11:28:51.328Z,18.90
2023-03-03T11:31:46.876Z,15.53
2023-03-03T11:34:39.733Z,19.33
2023-03-03T11:37:46.395Z,17.00
2023-03-03T11:40:51.117Z,20.43
2023-03-03T11:43:43.647Z,22.60
2023-03-03T11:46:43.590Z,20.40
2023-03-03T11:49:51.874Z,21.67
2023-03-03T11:53:03.126Z,18.87
2023-03-03T11:55:57.137Z,20.23
2023-03-03T11:59:05.241Z,19.00
2023-03-03T12:01:59.989Z,20.47
2023-03-03T12:04:56.169Z,21.97
2023-03-03T12:08:15.232Z,19.37
2023-03-03T12:11:23.477Z,25.97
2023-03-03T12:14:09.557Z,22.67
2023-03-03T12:17:21.351Z,25.67
2023-03-03T12:20:07.511Z,21.37
2023-03-03T12:23:15.429Z,20.13
2023-03-03T12:26:32.959Z,22.87
2023-03-03T12:29:25.944Z,24.77
2023-03-03T12:32:35.304Z,22.73
2023-03-03T12:35:50.521Z,20.30
2023-03-03T12:38:56.030Z,23.00
2023-03-03T12:41:45.324Z,20.90
2023-03-03T12:44:46.914Z,20.53
2023-03-03T12:47:41.109Z,22.87
2023-03-03T12:50:43.232Z,24.33
2023-03-03T12:54:07.399Z,20.10
2023-03-03T12:57:21.934Z,22.83
2023-03-03T13:00:11.098Z,22.80
2023-03-03T13:03:17.805Z,22.33
2023-03-03T13:06:38.798Z,22.03
2023-03-03T13:09:53.725Z,23.00
2023-03-03T13:12:47.340Z,19.43
2023-03-03T13:16:06.852Z,21.80
2023-03-03T13:18:53.376Z,21.60
2023-03-03T13:21:59.753Z,22.73
2023-03-03T13:24:55.593Z,19.47
2023-03-03T13:27:45.449Z,19.47
2023-03-03T13:30:35.448Z,24.63
2023-03-03T13:33:32.380Z,25.97
2023-03-03T13:36:19.448Z,18.37
2023-03-03T13:39:23.948Z,18.77
2023-03-03T13:42:36.648Z,25.80
2023-03-03T13:45:35.178Z,21.67
2023-03-03T13:48:51.904Z,24.97
2023-03-03T13:51:46.420Z,27.33
2023-03-03T13:54:51.503Z,23.43
2023-03-03T13:58:01.570Z,23.67
2023-03-03T14:01:15.199Z,23.67
2023-03-03T14:04:13.443Z,24.97
2023-03-03T14:07:19.803Z,23.73
2023-03-03T14:10:35.199Z,24.37
2023-03-03T14:13:55.675Z,20.93
2023-03-03T14:16:57.165Z,23.87
2023-03-03T14:19:48.082Z,27.17
2023-03-03T14:23:22.375Z,24.53
2023-03-03T14:26:11.446Z,23.23
2023-03-03T14:29:24.334Z,24.03
2023-03-03T14:32:43.211Z,24.37
2023-03-03T14:35:40.193Z,18.77
2023-03-03T14:38:32.620Z,20.33
2023-03-03T14:41:22.072Z,21.97
2023-03-03T14:44:20.578Z,26.53
2023-03-03T14:47:10.270Z,29.10
2023-03-03T14:50:03.007Z,26.73
2023-03-03T14:53:06.137Z,29.33
2023-03-03T14:55:53.271Z,24.57
2023-03-03T14:58:41.957Z,23.67
2023-03-03T15:01:36.127Z,22.40
2023-03-03T15:04:28.420Z,19.93
2023-03-03T15:07:37.216Z,23.50
2023-03-03T15:10:33.100Z,25.07
2023-03-03T15:13:19.200Z,21.43
2023-03-03T15:16:18.030Z,23.40
2023-03-03T15:19:16.498Z,25.07
2023-03-03T15:22:29.769Z,25.67
2023-03-03T15:25:24.144Z,26.13
2023-03-03T15:28:50.679Z,21.83
2023-03-03T15:32:13.920Z,27.70
2023-03-03T15:35:27.961Z,21.13
2023-03-03T15:38:20.299Z,23.47
2023-03-03T15:41:25.235Z,24.33
2023-03-03T15:44:19.939Z,24.27
2023-03-03T15:47:34.448Z,21.30
2023-03-03T15:50:28.349Z,20.70
2023-03-03T15:53:31.433Z,26.67
2023-03-03T15:56:20.990Z,20.83
2023-03-03T15:59:26.353Z,25.97
2023-03-03T16:02:18.139Z,21.90
2023-03-03T16:05:37.182Z,21.53
2023-03-03T16:08:32.799Z,24.13
2023-03-03T16:11:31.992Z,26.50
2023-03-03T16:14:21.346Z,28.17
2023-03-03T16:17:35.730Z,24.37
2023-03-03T16:20:25.251Z,24.23
2023-03-03T16:23:11.405Z,21.63
2023-03-03T16:26:10.901Z,26.33
2023-03-03T16:29:23.395Z,23.87
2023-03-03T16:32:28.874Z,21.87
2023-03-03T16:35:30.261Z,20.87
2023-03-03T16:38:24.335Z,24.93
2023-03-03T16:41:33.642Z,22.63
2023-03-03T16:44:31.608Z,26.60
2023-03-03T16:47:36.891Z,30.03
2023-03-03T16:50:45.676Z,30.43
2023-03-03T16:53:43.957Z,30.07
2023-03-03T16:56:52.569Z,28.03
2023-03-03T16:59:50.585Z,29.33
2023-03-03T17:02:46.439Z,32.70
2023-03-03T17:05:42.327Z,31.13
2023-03-03T17:08:31.795Z,34.57
2023-03-03T17:11:27.339Z,33.53
2023-03-03T17:14:13.940Z,33.30
2023-03-03T17:17:07.798Z,31.57
2023-03-03T17:20:15.493Z,34.80
2023-03-03T17:23:07.997Z,40.47
2023-03-03T17:26:17.742Z,42.90
2023-03-03T17:29:45.715Z,35.07
2023-03-03T17:32:50.312Z,48.50
2023-03-03T17:36:12.503Z,45.33
2023-03-03T17:39:26.811Z,38.07
2023-03-03T17:42:34.581Z,35.83
2023-03-03T17:45:24.053Z,29.43
2023-03-03T17:48:31.683Z,44.70
2023-03-03T17:51:45.061Z,49.37
2023-03-03T17:54:34.184Z,72.53
2023-03-03T17:57:26.706Z,58.00
2023-03-03T18:00:50.794Z,53.43
2023-03-03T18:03:43.280Z,63.70
2023-03-03T18:06:39.810Z,52.60
2023-03-03T18:09:41.475Z,69.57
2023-03-03T18:12:52.844Z,77.10
2023-03-03T18:16:12.644Z,56.80
2023-03-03T18:18:59.156Z,35.67
2023-03-03T18:21:48.366Z,32.50
2023-03-03T18:24:53.465Z,33.50
2023-03-03T18:27:44.286Z,64.30
2023-03-03T18:30:51.240Z,76.67
2023-03-03T18:33:56.364Z,36.97
2023-03-03T18:36:55.077Z,49.83
2023-03-03T18:40:13.494Z,42.87
2023-03-03T18:43:38.342Z,31.27
2023-03-03T18:46:25.014Z,42.00
2023-03-03T18:49:12.628Z,36.07
2023-03-03T18:52:30.715Z,34.13
2023-03-03T18:55:16.941Z,35.03
2023-03-03T18:58:15.667Z,40.30
2023-03-03T19:01:10.245Z,32.70
2023-03-03T19:04:11.902Z,41.47
2023-03-03T19:07:08.549Z,28.60
2023-03-03T19:09:57.481Z,36.40
2023-03-03T19:12:55.410Z,32.50
2023-03-03T19:15:44.506Z,34.57
2023-03-03T19:18:42.846Z,39.70
2023-03-03T19:21:35.393Z,28.13
2023-03-03T19:24:28.226Z,29.00
2023-03-03T19:27:35.537Z,39.00
2023-03-03T19:31:05.971Z,28.63
2023-03-03T19:33:54.583Z,32.97
2023-03-03T19:37:01.290Z,31.97
2023-03-03T19:40:18.943Z,29.57
2023-03-03T19:43:21.703Z,33.77
2023-03-03T19:46:19.949Z,31.93
2023-03-03T19:49:27.403Z,39.07
2023-03-03T19:52:42.159Z,29.33
2023-03-03T19:55:53.186Z,42.90
2023-03-03T19:59:01.295Z,38.23
2023-03-03T20:01:53.057Z,33.10
2023-03-03T20:05:03.993Z,38.53
2023-03-03T20:08:37.903Z,37.13
2023-03-03T20:11:48.383Z,37.70
2023-03-03T20:14:51.901Z,38.53
2023-03-03T20:17:54.644Z,41.30
2023-03-03T20:21:06.731Z,40.67
2023-03-03T20:24:18.108Z,31.80
2023-03-03T20:27:24.134Z,35.37
2023-03-03T20:30:28.719Z,40.27
2023-03-03T20:33:36.384Z,43.33
2023-03-03T20:36:35.788Z,50.80
2023-03-03T20:39:42.155Z,42.83
2023-03-03T20:42:45.051Z,41.90
2023-03-03T20:45:45.500Z,42.73
2023-03-03T20:49:17.066Z,43.33
2023-03-03T20:52:11.922Z,42.13
2023-03-03T20:54:58.207Z,39.00
2023-03-03T20:57:57.939Z,38.17
2023-03-03T21:01:08.596Z,40.73
2023-03-03T21:04:15.261Z,46.17
2023-03-03T21:07:03.406Z,38.90
2023-03-03T21:09:49.732Z,41.23
2023-03-03T21:12:36.089Z,45.67
2023-03-03T21:15:27.422Z,37.83
2023-03-03T21:18:22.757Z,36.23
2023-03-03T21:21:09.500Z,35.93
2023-03-03T21:23:56.784Z,40.27
2023-03-03T21:26:52.579Z,41.73
2023-03-03T21:29:38.896Z,44.17
2023-03-03T21:32:39.431Z,39.93
2023-03-03T21:35:25.864Z,44.03
2023-03-03T21:38:32.421Z,43.67
2023-03-03T21:41:19.444Z,44.37
2023-03-03T21:44:33.642Z,43.00
2023-03-03T21:47:27.228Z,40.97
2023-03-03T21:50:13.885Z,41.27
2023-03-03T21:53:00.159Z,38.43
2023-03-03T21:55:49.556Z,47.07
2023-03-03T21:58:37.776Z,35.43
2023-03-03T22:01:24.565Z,36.10
2023-03-03T22:04:10.844Z,34.10
2023-03-03T22:06:57.294Z,43.30
2023-03-03T22:09:43.650Z,33.90
2023-03-03T22:12:29.986Z,37.97
2023-03-03T22:15:16.375Z,39.10
2023-03-03T22:18:02.602Z,36.67
2023-03-03T22:20:50.507Z,43.10
2023-03-03T22:23:37.142Z,35.03
2023-03-03T22:26:23.321Z,41.03
2023-03-03T22:29:10.357Z,36.27
2023-03-03T22:31:56.702Z,38.20
2023-03-03T22:34:43.365Z,43.63
2023-03-03T22:37:29.566Z,38.37
2023-03-03T22:40:16.534Z,36.43
2023-03-03T22:43:02.992Z,35.50
2023-03-03T22:45:50.492Z,38.97
2023-03-03T22:48:37.978Z,45.17
2023-03-03T22:51:26.139Z,36.00
2023-03-03T22:54:12.562Z,39.27
2023-03-03T22:56:58.903Z,34.80
2023-03-03T22:59:45.184Z,33.07
2023-03-03T23:02:31.617Z,35.63
2023-03-03T23:05:18.005Z,43.73
2023-03-03T23:08:07.754Z,38.30
2023-03-03T23:10:53.945Z,36.47
2023-03-03T23:13:40.663Z,35.60
2023-03-03T23:16:27.107Z,38.10
2023-03-03T23:19:13.671Z,35.47
2023-03-03T23:21:59.803Z,39.67
2023-03-03T23:24:46.336Z,35.57
2023-03-03T23:27:32.830Z,34.13
2023-03-03T23:30:21.251Z,39.07
2023-03-03T23:33:08.339Z,39.87
2023-03-03T23:35:54.475Z,37.03
2023-03-03T23:38:43.101Z,32.53
2023-03-03T23:41:29.816Z,41.47
2023-03-03T23:44:16.299Z,27.93
2023-03-03T23:47:02.597Z,32.77
2023-03-03T23:49:48.877Z,33.77
2023-03-03T23:52:35.346Z,35.17
2023-03-03T23:55:21.540Z,35.57
2023-03-03T23:58:08.131Z,31.33
